This is the latest recevied weather packets stored in our database for station/object K6MLE. If no packets are shown the sender has not sent any weather packets the latest 10 day(s).
| Time | Temp. | Humidity | Pressure | Rain* | Wind** | Luminosity | Snow |
|---|---|---|---|---|---|---|---|
| 1777633818 | 8.33° C | 92% | 1013.4 hPa | 0 mm | - | - | - |
| 1777627817 | 10° C | 92% | 1013.6 hPa | 0 mm | - | - | - |
| 1777627216 | 10° C | 92% | 1013.5 hPa | 0 mm | - | - | - |
| 1777623621 | 11.11° C | 90% | 1014 hPa | 0 mm | - | - | - |
| 1777621816 | 11.11° C | 90% | 1013.8 hPa | 0 mm | - | - | - |
| 1777616419 | 12.22° C | 87% | 1014.1 hPa | 0 mm | - | - | - |
| 1777615221 | 12.22° C | 87% | 1014.1 hPa | 0 mm | - | - | - |
| 1777609218 | 13.89° C | 81% | 1013.3 hPa | 0 mm | - | - | - |
| 1777601418 | 19.44° C | 60% | 1012.1 hPa | 0 mm | - | - | - |
| 1777600817 | 20° C | 56% | 1012.2 hPa | 0 mm | - | - | - |
| 1777599618 | 21.11° C | 50% | 1012.3 hPa | 0 mm | - | - | - |
| 1777599038 | 21.67° C | 48% | 1012.5 hPa | 0 mm | - | - | - |
| 1777594237 | 23.33° C | 43% | 1012.7 hPa | 0 mm | - | - | - |
| 1777593018 | 23.89° C | 42% | 1012.9 hPa | 0 mm | - | - | - |
| 1777586417 | 24.44° C | 41% | 1013.5 hPa | 0 mm | - | - | - |
| 1777585217 | 24.44° C | 41% | 1013.6 hPa | 0 mm | - | - | - |
| 1777584018 | 23.89° C | 45% | 1013.7 hPa | 0 mm | - | - | - |
| 1777583417 | 23.89° C | 45% | 1013.6 hPa | 0 mm | - | - | - |
| 1777581021 | 23.89° C | 45% | 1013.8 hPa | 0 mm | - | - | - |
| 1777576219 | 22.78° C | 45% | 1014.4 hPa | 0 mm | - | - | - |
| 1777573838 | 21.67° C | 47% | 1014.5 hPa | 0 mm | - | - | - |
| 1777571417 | 21.67° C | 47% | 1014.5 hPa | 0 mm | - | - | - |
| 1777563017 | 10.56° C | 95% | 1013.9 hPa | 0 mm | - | - | - |
| 1777558216 | 6.67° C | 94% | 1014.1 hPa | 0 mm | - | - | - |
| 1777554636 | 7.22° C | 93% | 1014.1 hPa | 0 mm | - | - | - |
* Rain latest hour (hover to see other rain measurements)
** Current wind speed in m/s (hover to see current wind gust speed)